Hanseatic — C6KA9 — position and weather

sailwx.info

Track history (hours):
 
Tides and Currents Weather Stations Pressure Air Temp Water Temp Dewpoint Dewpoint Depression Visibility Wind Speed Wind Dir Waves Ship Positions

Hanseatic

Operator: Hapag-Lloyd Container Line

Last reported at 2017-Jul-06 22:26 UTC. Time now 2017-Jul-21 02:31 UTC.
Position N 70°41' E 020°06'.
Warning: this ship's position is 14 days out of date.

Length 122 m; draft 4.9 m.

Type: Ship. MMSI: 309577000.

Date/timePositionNaut miles runAvg speedWind from/ knotsBaromVisibWave heightAir tempDewpointWater temp
2017-Jul-06 22:26N 70°41' E 020°06'  
2017-Jun-27 06:47N 71°31' E 025°12'415.3
2017-Jun-27 06:30N 71°27' E 025°19'815.2
2017-Jun-27 06:00N 71°21' E 025°31'714.8
2017-Jun-27 05:30N 71°14' E 025°42'4 8.9
2017-Jun-27 05:00N 71°10' E 025°49'4 7.8
2017-Jun-27 04:30N 71°09' E 026°00'4 8.3
2017-Jun-27 04:00N 71°07' E 026°11'4 8.9
2017-Jun-27 03:30N 71°03' E 026°18'5 9.8
2017-Jun-27 03:01N 70°59' E 026°12'5 9.4
2017-Jun-27 02:30N 70°58' E 025°58'1 2.8
2017-Jun-27 02:00N 70°59' E 025°58'0 0.0
2017-Jun-27 01:30N 70°59' E 025°58'0 0.0
2017-Jun-27 01:00N 70°59' E 025°58'0 0.0
2017-Jun-27 00:30N 70°59' E 025°58'0 0.0
2017-Jun-27 00:00N 70°59' E 025°58'0 0.0
2017-Jun-26 23:30N 70°59' E 025°58'0 0.0
2017-Jun-26 23:00N 70°59' E 025°58'0 0.0
2017-Jun-26 22:30N 70°59' E 025°58'  
Track history (hours):
 
Tides and Currents Weather Stations Pressure Air Temp Water Temp Dewpoint Dewpoint Depression Visibility Wind Speed Wind Dir Waves Ship Positions

Hanseatic

Operator: Hapag-Lloyd Container Line

Last reported at 2017-Jul-06 22:26 UTC. Time now 2017-Jul-21 02:31 UTC.
Position N 70°41' E 020°06'.
Warning: this ship's position is 14 days out of date.

Length 122 m; draft 4.9 m.

Type: Ship. MMSI: 309577000.

Date/timePositionNaut miles runAvg speedWind from/ knotsBaromVisibWave heightAir tempDewpointWater temp
2017-Jul-06 22:26N 70°41' E 020°06'  
2017-Jun-27 06:47N 71°31' E 025°12'415.3
2017-Jun-27 06:30N 71°27' E 025°19'815.2
2017-Jun-27 06:00N 71°21' E 025°31'714.8
2017-Jun-27 05:30N 71°14' E 025°42'4 8.9
2017-Jun-27 05:00N 71°10' E 025°49'4 7.8
2017-Jun-27 04:30N 71°09' E 026°00'4 8.3
2017-Jun-27 04:00N 71°07' E 026°11'4 8.9
2017-Jun-27 03:30N 71°03' E 026°18'5 9.8
2017-Jun-27 03:01N 70°59' E 026°12'5 9.4
2017-Jun-27 02:30N 70°58' E 025°58'1 2.8
2017-Jun-27 02:00N 70°59' E 025°58'0 0.0
2017-Jun-27 01:30N 70°59' E 025°58'0 0.0
2017-Jun-27 01:00N 70°59' E 025°58'0 0.0
2017-Jun-27 00:30N 70°59' E 025°58'0 0.0
2017-Jun-27 00:00N 70°59' E 025°58'0 0.0
2017-Jun-26 23:30N 70°59' E 025°58'0 0.0
2017-Jun-26 23:00N 70°59' E 025°58'0 0.0
2017-Jun-26 22:30N 70°59' E 025°58'  

Dump ship's entire track history